sensor_id;sensor_type;location;lat;lon;timestamp;P1;durP1;ratioP1;P2;durP2;ratioP2
3293;SDS011;1659;51.470;6.770;2024-02-28T00:00:25;50.47;;;23.30;;
3293;SDS011;1659;51.470;6.770;2024-02-28T00:02:51;61.60;;;23.80;;
3293;SDS011;1659;51.470;6.770;2024-02-28T00:05:18;55.83;;;24.17;;
3293;SDS011;1659;51.470;6.770;2024-02-28T00:07:44;60.20;;;24.70;;
3293;SDS011;1659;51.470;6.770;2024-02-28T00:10:12;53.13;;;22.83;;
3293;SDS011;1659;51.470;6.770;2024-02-28T00:12:39;57.57;;;23.57;;
3293;SDS011;1659;51.470;6.770;2024-02-28T00:15:05;67.80;;;25.50;;
3293;SDS011;1659;51.470;6.770;2024-02-28T00:17:39;49.83;;;22.17;;
3293;SDS011;1659;51.470;6.770;2024-02-28T00:20:07;52.77;;;21.90;;
3293;SDS011;1659;51.470;6.770;2024-02-28T00:22:35;64.37;;;23.20;;
3293;SDS011;1659;51.470;6.770;2024-02-28T00:25:01;57.93;;;23.93;;
3293;SDS011;1659;51.470;6.770;2024-02-28T00:27:28;68.87;;;24.87;;
3293;SDS011;1659;51.470;6.770;2024-02-28T00:29:54;60.00;;;25.00;;
3293;SDS011;1659;51.470;6.770;2024-02-28T00:32:21;55.87;;;21.67;;
3293;SDS011;1659;51.470;6.770;2024-02-28T00:34:49;68.90;;;26.23;;
3293;SDS011;1659;51.470;6.770;2024-02-28T00:37:15;68.50;;;25.27;;
3293;SDS011;1659;51.470;6.770;2024-02-28T00:39:43;64.43;;;23.27;;
3293;SDS011;1659;51.470;6.770;2024-02-28T00:42:09;50.73;;;22.10;;
3293;SDS011;1659;51.470;6.770;2024-02-28T00:44:36;59.33;;;22.00;;
3293;SDS011;1659;51.470;6.770;2024-02-28T00:47:02;60.60;;;23.80;;
3293;SDS011;1659;51.470;6.770;2024-02-28T00:49:29;59.90;;;23.10;;
3293;SDS011;1659;51.470;6.770;2024-02-28T00:51:57;50.73;;;22.50;;
3293;SDS011;1659;51.470;6.770;2024-02-28T00:54:23;54.73;;;21.87;;
3293;SDS011;1659;51.470;6.770;2024-02-28T00:56:51;47.50;;;22.70;;
3293;SDS011;1659;51.470;6.770;2024-02-28T00:59:17;79.87;;;26.30;;
3293;SDS011;1659;51.470;6.770;2024-02-28T01:01:44;58.83;;;23.67;;
3293;SDS011;1659;51.470;6.770;2024-02-28T01:04:10;56.23;;;23.77;;
3293;SDS011;1659;51.470;6.770;2024-02-28T01:06:37;62.83;;;25.50;;
3293;SDS011;1659;51.470;6.770;2024-02-28T01:09:05;60.37;;;23.60;;
3293;SDS011;1659;51.470;6.770;2024-02-28T01:11:32;55.43;;;25.73;;
3293;SDS011;1659;51.470;6.770;2024-02-28T01:13:58;51.47;;;21.90;;
3293;SDS011;1659;51.470;6.770;2024-02-28T01:16:25;68.63;;;25.50;;
3293;SDS011;1659;51.470;6.770;2024-02-28T01:18:52;60.13;;;25.57;;
3293;SDS011;1659;51.470;6.770;2024-02-28T01:21:19;69.07;;;25.00;;
3293;SDS011;1659;51.470;6.770;2024-02-28T01:23:45;78.47;;;27.80;;
3293;SDS011;1659;51.470;6.770;2024-02-28T01:26:13;64.60;;;26.57;;
3293;SDS011;1659;51.470;6.770;2024-02-28T01:28:40;81.90;;;28.00;;
3293;SDS011;1659;51.470;6.770;2024-02-28T01:31:08;75.23;;;24.97;;
3293;SDS011;1659;51.470;6.770;2024-02-28T01:33:34;78.60;;;26.80;;
3293;SDS011;1659;51.470;6.770;2024-02-28T01:36:01;73.30;;;27.57;;
3293;SDS011;1659;51.470;6.770;2024-02-28T01:38:27;135.67;;;28.37;;
3293;SDS011;1659;51.470;6.770;2024-02-28T01:40:54;104.83;;;26.83;;
3293;SDS011;1659;51.470;6.770;2024-02-28T01:43:22;133.73;;;30.20;;
3293;SDS011;1659;51.470;6.770;2024-02-28T01:45:49;231.80;;;32.60;;
3293;SDS011;1659;51.470;6.770;2024-02-28T01:48:16;187.27;;;31.13;;
3293;SDS011;1659;51.470;6.770;2024-02-28T01:50:43;213.20;;;34.57;;
3293;SDS011;1659;51.470;6.770;2024-02-28T01:53:10;156.13;;;29.23;;
3293;SDS011;1659;51.470;6.770;2024-02-28T01:55:38;109.03;;;31.47;;
3293;SDS011;1659;51.470;6.770;2024-02-28T01:58:06;197.50;;;35.00;;
3293;SDS011;1659;51.470;6.770;2024-02-28T02:00:34;166.07;;;35.47;;
3293;SDS011;1659;51.470;6.770;2024-02-28T02:03:00;110.30;;;33.30;;
3293;SDS011;1659;51.470;6.770;2024-02-28T02:05:28;97.47;;;31.50;;
3293;SDS011;1659;51.470;6.770;2024-02-28T02:07:54;84.70;;;30.30;;
3293;SDS011;1659;51.470;6.770;2024-02-28T02:10:22;70.27;;;28.50;;
3293;SDS011;1659;51.470;6.770;2024-02-28T02:12:49;96.93;;;29.37;;
3293;SDS011;1659;51.470;6.770;2024-02-28T02:15:15;110.37;;;30.00;;
3293;SDS011;1659;51.470;6.770;2024-02-28T02:17:43;148.63;;;29.50;;
3293;SDS011;1659;51.470;6.770;2024-02-28T02:20:10;117.10;;;29.60;;
3293;SDS011;1659;51.470;6.770;2024-02-28T02:22:41;156.27;;;32.40;;
3293;SDS011;1659;51.470;6.770;2024-02-28T02:25:08;181.67;;;29.60;;
3293;SDS011;1659;51.470;6.770;2024-02-28T02:27:35;132.37;;;28.60;;
3293;SDS011;1659;51.470;6.770;2024-02-28T02:30:02;90.13;;;27.90;;
3293;SDS011;1659;51.470;6.770;2024-02-28T02:32:29;96.80;;;30.87;;
3293;SDS011;1659;51.470;6.770;2024-02-28T02:34:55;132.97;;;30.90;;
3293;SDS011;1659;51.470;6.770;2024-02-28T02:37:22;95.97;;;29.87;;
3293;SDS011;1659;51.470;6.770;2024-02-28T02:39:50;96.00;;;28.27;;
3293;SDS011;1659;51.470;6.770;2024-02-28T02:42:18;111.73;;;28.83;;
3293;SDS011;1659;51.470;6.770;2024-02-28T02:44:45;129.30;;;26.90;;
3293;SDS011;1659;51.470;6.770;2024-02-28T02:47:11;138.20;;;29.60;;
3293;SDS011;1659;51.470;6.770;2024-02-28T02:49:38;111.23;;;28.60;;
3293;SDS011;1659;51.470;6.770;2024-02-28T02:52:05;85.37;;;28.90;;
3293;SDS011;1659;51.470;6.770;2024-02-28T02:54:31;75.60;;;24.50;;
3293;SDS011;1659;51.470;6.770;2024-02-28T02:56:59;136.40;;;30.10;;
3293;SDS011;1659;51.470;6.770;2024-02-28T02:59:26;88.17;;;26.30;;
3293;SDS011;1659;51.470;6.770;2024-02-28T03:01:52;103.37;;;24.47;;
3293;SDS011;1659;51.470;6.770;2024-02-28T03:04:19;108.20;;;24.90;;
3293;SDS011;1659;51.470;6.770;2024-02-28T03:06:45;86.33;;;24.73;;
3293;SDS011;1659;51.470;6.770;2024-02-28T03:09:12;67.73;;;22.53;;
3293;SDS011;1659;51.470;6.770;2024-02-28T03:11:38;105.23;;;26.27;;
3293;SDS011;1659;51.470;6.770;2024-02-28T03:14:06;89.33;;;24.10;;
3293;SDS011;1659;51.470;6.770;2024-02-28T03:16:33;94.13;;;26.93;;
3293;SDS011;1659;51.470;6.770;2024-02-28T03:19:02;78.43;;;25.20;;
3293;SDS011;1659;51.470;6.770;2024-02-28T03:21:29;81.50;;;25.23;;
3293;SDS011;1659;51.470;6.770;2024-02-28T03:23:55;69.97;;;25.23;;
3293;SDS011;1659;51.470;6.770;2024-02-28T03:26:22;98.50;;;29.27;;
3293;SDS011;1659;51.470;6.770;2024-02-28T03:28:48;87.03;;;25.83;;
3293;SDS011;1659;51.470;6.770;2024-02-28T03:31:16;85.97;;;25.50;;
3293;SDS011;1659;51.470;6.770;2024-02-28T03:33:43;92.70;;;28.10;;
3293;SDS011;1659;51.470;6.770;2024-02-28T03:36:12;119.20;;;30.77;;
3293;SDS011;1659;51.470;6.770;2024-02-28T03:38:38;87.60;;;30.80;;
3293;SDS011;1659;51.470;6.770;2024-02-28T03:41:05;124.10;;;29.60;;
3293;SDS011;1659;51.470;6.770;2024-02-28T03:43:31;111.40;;;33.10;;
3293;SDS011;1659;51.470;6.770;2024-02-28T03:45:58;109.77;;;32.97;;
3293;SDS011;1659;51.470;6.770;2024-02-28T03:48:26;108.80;;;30.93;;
3293;SDS011;1659;51.470;6.770;2024-02-28T03:50:52;119.70;;;34.33;;
3293;SDS011;1659;51.470;6.770;2024-02-28T03:53:19;141.33;;;38.67;;
3293;SDS011;1659;51.470;6.770;2024-02-28T03:55:45;137.50;;;37.20;;
3293;SDS011;1659;51.470;6.770;2024-02-28T03:58:12;133.83;;;36.53;;
3293;SDS011;1659;51.470;6.770;2024-02-28T04:00:39;108.00;;;33.87;;
3293;SDS011;1659;51.470;6.770;2024-02-28T04:03:05;120.67;;;35.90;;
3293;SDS011;1659;51.470;6.770;2024-02-28T04:05:33;132.57;;;41.50;;
3293;SDS011;1659;51.470;6.770;2024-02-28T04:08:00;125.47;;;38.60;;
3293;SDS011;1659;51.470;6.770;2024-02-28T04:10:26;128.80;;;38.23;;
3293;SDS011;1659;51.470;6.770;2024-02-28T04:12:53;139.87;;;41.30;;
3293;SDS011;1659;51.470;6.770;2024-02-28T04:15:19;157.77;;;42.97;;
3293;SDS011;1659;51.470;6.770;2024-02-28T04:17:46;147.93;;;40.77;;
3293;SDS011;1659;51.470;6.770;2024-02-28T04:20:13;153.10;;;43.47;;
3293;SDS011;1659;51.470;6.770;2024-02-28T04:22:41;196.53;;;46.17;;
3293;SDS011;1659;51.470;6.770;2024-02-28T04:25:08;213.40;;;42.40;;
3293;SDS011;1659;51.470;6.770;2024-02-28T04:27:35;170.53;;;44.50;;
3293;SDS011;1659;51.470;6.770;2024-02-28T04:30:02;189.63;;;45.63;;
3293;SDS011;1659;51.470;6.770;2024-02-28T04:32:29;172.40;;;45.20;;
3293;SDS011;1659;51.470;6.770;2024-02-28T04:34:55;164.00;;;47.40;;
3293;SDS011;1659;51.470;6.770;2024-02-28T04:37:22;155.90;;;41.00;;
3293;SDS011;1659;51.470;6.770;2024-02-28T04:39:50;181.63;;;45.40;;
3293;SDS011;1659;51.470;6.770;2024-02-28T04:42:16;175.67;;;44.77;;
3293;SDS011;1659;51.470;6.770;2024-02-28T04:44:43;151.97;;;43.80;;
3293;SDS011;1659;51.470;6.770;2024-02-28T04:47:09;133.13;;;40.13;;
3293;SDS011;1659;51.470;6.770;2024-02-28T04:49:36;135.27;;;42.03;;
3293;SDS011;1659;51.470;6.770;2024-02-28T04:52:04;130.77;;;41.13;;
3293;SDS011;1659;51.470;6.770;2024-02-28T04:54:31;136.37;;;41.67;;
3293;SDS011;1659;51.470;6.770;2024-02-28T04:56:59;153.03;;;45.07;;
3293;SDS011;1659;51.470;6.770;2024-02-28T04:59:26;152.10;;;45.47;;
3293;SDS011;1659;51.470;6.770;2024-02-28T05:01:52;160.00;;;49.13;;
3293;SDS011;1659;51.470;6.770;2024-02-28T05:04:19;147.03;;;46.53;;
3293;SDS011;1659;51.470;6.770;2024-02-28T05:06:46;170.47;;;46.53;;
3293;SDS011;1659;51.470;6.770;2024-02-28T05:09:12;190.03;;;45.50;;
3293;SDS011;1659;51.470;6.770;2024-02-28T05:11:39;158.33;;;46.37;;
3293;SDS011;1659;51.470;6.770;2024-02-28T05:14:08;153.30;;;47.93;;
3293;SDS011;1659;51.470;6.770;2024-02-28T05:16:35;164.00;;;45.80;;
3293;SDS011;1659;51.470;6.770;2024-02-28T05:19:02;160.00;;;42.93;;
3293;SDS011;1659;51.470;6.770;2024-02-28T05:21:29;151.10;;;45.50;;
3293;SDS011;1659;51.470;6.770;2024-02-28T05:23:56;170.47;;;47.37;;
3293;SDS011;1659;51.470;6.770;2024-02-28T05:26:23;156.70;;;43.77;;
3293;SDS011;1659;51.470;6.770;2024-02-28T05:28:50;138.97;;;44.97;;
3293;SDS011;1659;51.470;6.770;2024-02-28T05:31:22;161.57;;;46.17;;
3293;SDS011;1659;51.470;6.770;2024-02-28T05:33:50;158.37;;;46.47;;
3293;SDS011;1659;51.470;6.770;2024-02-28T05:36:17;176.07;;;49.47;;
3293;SDS011;1659;51.470;6.770;2024-02-28T05:38:44;179.23;;;54.50;;
3293;SDS011;1659;51.470;6.770;2024-02-28T05:41:11;207.60;;;55.27;;
3293;SDS011;1659;51.470;6.770;2024-02-28T05:43:37;186.33;;;48.10;;
3293;SDS011;1659;51.470;6.770;2024-02-28T05:46:04;173.80;;;54.67;;
3293;SDS011;1659;51.470;6.770;2024-02-28T05:48:32;164.20;;;48.87;;
3293;SDS011;1659;51.470;6.770;2024-02-28T05:51:00;185.83;;;53.20;;
3293;SDS011;1659;51.470;6.770;2024-02-28T05:53:27;183.30;;;49.83;;
3293;SDS011;1659;51.470;6.770;2024-02-28T05:55:57;199.03;;;52.07;;
3293;SDS011;1659;51.470;6.770;2024-02-28T05:58:24;168.80;;;50.90;;
3293;SDS011;1659;51.470;6.770;2024-02-28T06:00:51;190.57;;;53.33;;
3293;SDS011;1659;51.470;6.770;2024-02-28T06:03:17;233.57;;;54.70;;
3293;SDS011;1659;51.470;6.770;2024-02-28T06:05:45;184.17;;;50.07;;
3293;SDS011;1659;51.470;6.770;2024-02-28T06:08:13;173.03;;;52.50;;
3293;SDS011;1659;51.470;6.770;2024-02-28T06:10:40;183.03;;;53.10;;
3293;SDS011;1659;51.470;6.770;2024-02-28T06:13:07;203.27;;;51.27;;
3293;SDS011;1659;51.470;6.770;2024-02-28T06:15:34;202.27;;;53.07;;
3293;SDS011;1659;51.470;6.770;2024-02-28T06:18:00;218.23;;;54.37;;
3293;SDS011;1659;51.470;6.770;2024-02-28T06:20:27;182.97;;;57.37;;
3293;SDS011;1659;51.470;6.770;2024-02-28T06:22:55;177.53;;;53.37;;
3293;SDS011;1659;51.470;6.770;2024-02-28T06:25:22;209.23;;;54.00;;
3293;SDS011;1659;51.470;6.770;2024-02-28T06:27:49;189.47;;;52.53;;
3293;SDS011;1659;51.470;6.770;2024-02-28T06:30:16;181.20;;;53.70;;
3293;SDS011;1659;51.470;6.770;2024-02-28T06:32:43;217.93;;;58.37;;
3293;SDS011;1659;51.470;6.770;2024-02-28T06:35:09;180.30;;;53.17;;
3293;SDS011;1659;51.470;6.770;2024-02-28T06:37:36;184.17;;;52.60;;
3293;SDS011;1659;51.470;6.770;2024-02-28T06:40:04;197.57;;;53.40;;
3293;SDS011;1659;51.470;6.770;2024-02-28T06:42:33;198.67;;;55.87;;
3293;SDS011;1659;51.470;6.770;2024-02-28T06:45:15;187.73;;;51.10;;
3293;SDS011;1659;51.470;6.770;2024-02-28T06:47:45;167.50;;;50.57;;
3293;SDS011;1659;51.470;6.770;2024-02-28T06:50:12;175.77;;;49.87;;
3293;SDS011;1659;51.470;6.770;2024-02-28T06:52:44;168.33;;;50.30;;
3293;SDS011;1659;51.470;6.770;2024-02-28T06:57:58;158.13;;;44.70;;
3293;SDS011;1659;51.470;6.770;2024-02-28T07:00:31;162.63;;;44.37;;
3293;SDS011;1659;51.470;6.770;2024-02-28T07:03:00;127.13;;;40.53;;
3293;SDS011;1659;51.470;6.770;2024-02-28T07:05:26;147.40;;;40.17;;
3293;SDS011;1659;51.470;6.770;2024-02-28T07:07:53;141.27;;;41.00;;
3293;SDS011;1659;51.470;6.770;2024-02-28T07:10:20;133.13;;;40.90;;
3293;SDS011;1659;51.470;6.770;2024-02-28T07:12:50;139.17;;;41.10;;
3293;SDS011;1659;51.470;6.770;2024-02-28T07:15:17;151.73;;;41.43;;
3293;SDS011;1659;51.470;6.770;2024-02-28T07:17:46;142.40;;;35.73;;
3293;SDS011;1659;51.470;6.770;2024-02-28T07:20:13;132.00;;;40.10;;
3293;SDS011;1659;51.470;6.770;2024-02-28T07:22:42;135.00;;;40.67;;
3293;SDS011;1659;51.470;6.770;2024-02-28T07:25:09;144.77;;;42.00;;
3293;SDS011;1659;51.470;6.770;2024-02-28T07:27:36;139.17;;;41.80;;
3293;SDS011;1659;51.470;6.770;2024-02-28T07:30:06;144.23;;;39.33;;
3293;SDS011;1659;51.470;6.770;2024-02-28T07:32:35;134.90;;;39.53;;
3293;SDS011;1659;51.470;6.770;2024-02-28T07:35:07;129.47;;;38.70;;
3293;SDS011;1659;51.470;6.770;2024-02-28T07:37:34;147.57;;;42.30;;
3293;SDS011;1659;51.470;6.770;2024-02-28T07:40:00;158.27;;;43.87;;
3293;SDS011;1659;51.470;6.770;2024-02-28T07:42:29;133.70;;;38.30;;
3293;SDS011;1659;51.470;6.770;2024-02-28T07:45:00;143.83;;;45.33;;
3293;SDS011;1659;51.470;6.770;2024-02-28T07:47:30;149.90;;;46.57;;
3293;SDS011;1659;51.470;6.770;2024-02-28T07:56:15;138.23;;;37.20;;
3293;SDS011;1659;51.470;6.770;2024-02-28T07:58:43;149.97;;;45.87;;
3293;SDS011;1659;51.470;6.770;2024-02-28T08:01:18;155.60;;;41.40;;
3293;SDS011;1659;51.470;6.770;2024-02-28T08:03:53;174.50;;;46.40;;
3293;SDS011;1659;51.470;6.770;2024-02-28T08:06:26;188.97;;;47.97;;
3293;SDS011;1659;51.470;6.770;2024-02-28T08:08:56;177.07;;;45.37;;
3293;SDS011;1659;51.470;6.770;2024-02-28T08:11:23;135.13;;;38.87;;
3293;SDS011;1659;51.470;6.770;2024-02-28T08:13:50;164.07;;;44.27;;
3293;SDS011;1659;51.470;6.770;2024-02-28T08:16:17;149.67;;;40.97;;
3293;SDS011;1659;51.470;6.770;2024-02-28T08:18:43;163.73;;;42.47;;
3293;SDS011;1659;51.470;6.770;2024-02-28T08:24:48;168.73;;;46.50;;
3293;SDS011;1659;51.470;6.770;2024-02-28T08:27:17;176.00;;;51.13;;
3293;SDS011;1659;51.470;6.770;2024-02-28T08:29:44;177.77;;;47.80;;
3293;SDS011;1659;51.470;6.770;2024-02-28T08:32:12;168.50;;;44.93;;
3293;SDS011;1659;51.470;6.770;2024-02-28T08:34:43;170.37;;;44.47;;
3293;SDS011;1659;51.470;6.770;2024-02-28T08:37:14;193.27;;;51.30;;
3293;SDS011;1659;51.470;6.770;2024-02-28T08:40:06;178.57;;;49.47;;
3293;SDS011;1659;51.470;6.770;2024-02-28T08:42:33;196.40;;;54.73;;
3293;SDS011;1659;51.470;6.770;2024-02-28T08:45:00;156.80;;;47.70;;
3293;SDS011;1659;51.470;6.770;2024-02-28T08:47:28;192.00;;;51.00;;
3293;SDS011;1659;51.470;6.770;2024-02-28T08:49:58;178.07;;;47.00;;
3293;SDS011;1659;51.470;6.770;2024-02-28T08:52:28;166.10;;;46.03;;
3293;SDS011;1659;51.470;6.770;2024-02-28T08:54:54;156.13;;;42.50;;
3293;SDS011;1659;51.470;6.770;2024-02-28T08:57:30;167.97;;;45.23;;
3293;SDS011;1659;51.470;6.770;2024-02-28T09:00:15;172.83;;;43.20;;
3293;SDS011;1659;51.470;6.770;2024-02-28T09:02:56;178.63;;;46.57;;
3293;SDS011;1659;51.470;6.770;2024-02-28T09:05:27;173.40;;;45.10;;
3293;SDS011;1659;51.470;6.770;2024-02-28T09:07:56;169.53;;;44.80;;
3293;SDS011;1659;51.470;6.770;2024-02-28T09:10:23;185.00;;;45.17;;
3293;SDS011;1659;51.470;6.770;2024-02-28T09:12:52;147.93;;;44.80;;
3293;SDS011;1659;51.470;6.770;2024-02-28T09:15:19;155.90;;;43.40;;
3293;SDS011;1659;51.470;6.770;2024-02-28T09:17:46;154.30;;;38.53;;
3293;SDS011;1659;51.470;6.770;2024-02-28T09:20:12;167.13;;;46.10;;
3293;SDS011;1659;51.470;6.770;2024-02-28T09:22:40;155.57;;;46.30;;
3293;SDS011;1659;51.470;6.770;2024-02-28T09:25:07;127.37;;;41.80;;
3293;SDS011;1659;51.470;6.770;2024-02-28T09:27:34;158.30;;;44.33;;
3293;SDS011;1659;51.470;6.770;2024-02-28T09:30:03;141.97;;;44.20;;
3293;SDS011;1659;51.470;6.770;2024-02-28T09:32:30;165.57;;;48.73;;
3293;SDS011;1659;51.470;6.770;2024-02-28T09:34:57;142.43;;;41.57;;
3293;SDS011;1659;51.470;6.770;2024-02-28T09:37:24;153.67;;;45.00;;
3293;SDS011;1659;51.470;6.770;2024-02-28T09:39:51;128.60;;;37.93;;
3293;SDS011;1659;51.470;6.770;2024-02-28T09:42:18;147.73;;;42.73;;
3293;SDS011;1659;51.470;6.770;2024-02-28T09:44:45;137.60;;;38.90;;
3293;SDS011;1659;51.470;6.770;2024-02-28T09:47:14;140.30;;;42.97;;
3293;SDS011;1659;51.470;6.770;2024-02-28T09:49:41;114.73;;;38.03;;
3293;SDS011;1659;51.470;6.770;2024-02-28T09:52:08;129.17;;;40.03;;
3293;SDS011;1659;51.470;6.770;2024-02-28T09:54:35;128.13;;;39.57;;
3293;SDS011;1659;51.470;6.770;2024-02-28T09:57:02;134.30;;;40.77;;
3293;SDS011;1659;51.470;6.770;2024-02-28T09:59:31;139.33;;;40.63;;
3293;SDS011;1659;51.470;6.770;2024-02-28T10:01:58;156.70;;;39.90;;
3293;SDS011;1659;51.470;6.770;2024-02-28T10:04:29;116.10;;;35.60;;
3293;SDS011;1659;51.470;6.770;2024-02-28T10:06:56;126.43;;;41.50;;
3293;SDS011;1659;51.470;6.770;2024-02-28T10:09:23;134.10;;;41.10;;
3293;SDS011;1659;51.470;6.770;2024-02-28T10:11:51;112.77;;;37.97;;
3293;SDS011;1659;51.470;6.770;2024-02-28T10:14:18;116.27;;;41.60;;
3293;SDS011;1659;51.470;6.770;2024-02-28T10:16:45;131.33;;;46.00;;
3293;SDS011;1659;51.470;6.770;2024-02-28T10:19:11;129.53;;;43.33;;
3293;SDS011;1659;51.470;6.770;2024-02-28T10:21:39;144.40;;;48.10;;
3293;SDS011;1659;51.470;6.770;2024-02-28T10:24:06;131.63;;;43.73;;
3293;SDS011;1659;51.470;6.770;2024-02-28T10:26:41;140.70;;;47.83;;
3293;SDS011;1659;51.470;6.770;2024-02-28T10:29:08;139.83;;;46.67;;
3293;SDS011;1659;51.470;6.770;2024-02-28T10:31:35;116.90;;;41.60;;
3293;SDS011;1659;51.470;6.770;2024-02-28T10:34:02;119.27;;;39.33;;
3293;SDS011;1659;51.470;6.770;2024-02-28T10:36:31;114.73;;;40.50;;
3293;SDS011;1659;51.470;6.770;2024-02-28T10:39:00;117.67;;;39.67;;
3293;SDS011;1659;51.470;6.770;2024-02-28T10:41:28;103.80;;;36.90;;
3293;SDS011;1659;51.470;6.770;2024-02-28T10:43:55;109.67;;;37.53;;
3293;SDS011;1659;51.470;6.770;2024-02-28T10:46:22;116.20;;;37.43;;
3293;SDS011;1659;51.470;6.770;2024-02-28T10:48:49;118.67;;;37.30;;
3293;SDS011;1659;51.470;6.770;2024-02-28T10:51:18;118.10;;;35.20;;
3293;SDS011;1659;51.470;6.770;2024-02-28T10:53:47;98.90;;;36.03;;
3293;SDS011;1659;51.470;6.770;2024-02-28T10:56:17;113.83;;;34.63;;
3293;SDS011;1659;51.470;6.770;2024-02-28T10:58:47;109.47;;;37.57;;
3293;SDS011;1659;51.470;6.770;2024-02-28T11:01:17;106.90;;;35.13;;
3293;SDS011;1659;51.470;6.770;2024-02-28T11:03:44;97.57;;;32.67;;
3293;SDS011;1659;51.470;6.770;2024-02-28T11:06:16;119.03;;;39.07;;
3293;SDS011;1659;51.470;6.770;2024-02-28T11:08:45;92.43;;;34.90;;
3293;SDS011;1659;51.470;6.770;2024-02-28T11:11:13;113.23;;;37.90;;
3293;SDS011;1659;51.470;6.770;2024-02-28T11:13:50;108.40;;;37.20;;
3293;SDS011;1659;51.470;6.770;2024-02-28T11:16:17;100.20;;;34.30;;
3293;SDS011;1659;51.470;6.770;2024-02-28T11:18:51;90.57;;;33.77;;
3293;SDS011;1659;51.470;6.770;2024-02-28T11:21:18;101.33;;;35.37;;
3293;SDS011;1659;51.470;6.770;2024-02-28T11:23:45;91.60;;;35.17;;
3293;SDS011;1659;51.470;6.770;2024-02-28T11:26:13;100.43;;;34.77;;
3293;SDS011;1659;51.470;6.770;2024-02-28T11:28:40;107.10;;;36.80;;
3293;SDS011;1659;51.470;6.770;2024-02-28T11:31:08;98.03;;;36.33;;
3293;SDS011;1659;51.470;6.770;2024-02-28T11:33:35;88.43;;;34.30;;
3293;SDS011;1659;51.470;6.770;2024-02-28T11:36:03;100.73;;;35.63;;
3293;SDS011;1659;51.470;6.770;2024-02-28T11:38:30;103.87;;;34.90;;
3293;SDS011;1659;51.470;6.770;2024-02-28T11:40:57;118.47;;;40.07;;
3293;SDS011;1659;51.470;6.770;2024-02-28T11:43:24;101.27;;;38.07;;
3293;SDS011;1659;51.470;6.770;2024-02-28T11:45:51;89.27;;;36.37;;
3293;SDS011;1659;51.470;6.770;2024-02-28T11:48:19;88.03;;;32.30;;
3293;SDS011;1659;51.470;6.770;2024-02-28T11:50:45;78.97;;;31.10;;
3293;SDS011;1659;51.470;6.770;2024-02-28T11:53:12;87.63;;;33.60;;
3293;SDS011;1659;51.470;6.770;2024-02-28T11:55:38;92.37;;;34.80;;
3293;SDS011;1659;51.470;6.770;2024-02-28T11:58:07;82.70;;;32.47;;
3293;SDS011;1659;51.470;6.770;2024-02-28T12:00:34;94.43;;;35.60;;
3293;SDS011;1659;51.470;6.770;2024-02-28T12:03:04;85.40;;;32.10;;
3293;SDS011;1659;51.470;6.770;2024-02-28T12:05:33;80.10;;;32.50;;
3293;SDS011;1659;51.470;6.770;2024-02-28T12:08:00;98.63;;;35.00;;
3293;SDS011;1659;51.470;6.770;2024-02-28T12:10:27;87.30;;;34.50;;
3293;SDS011;1659;51.470;6.770;2024-02-28T12:12:53;84.60;;;34.70;;
3293;SDS011;1659;51.470;6.770;2024-02-28T12:15:25;87.73;;;33.57;;
3293;SDS011;1659;51.470;6.770;2024-02-28T12:17:52;92.10;;;34.17;;
3293;SDS011;1659;51.470;6.770;2024-02-28T12:20:19;71.23;;;30.67;;
3293;SDS011;1659;51.470;6.770;2024-02-28T12:22:47;82.07;;;34.20;;
3293;SDS011;1659;51.470;6.770;2024-02-28T12:25:14;72.63;;;32.13;;
3293;SDS011;1659;51.470;6.770;2024-02-28T12:27:41;87.20;;;33.00;;
3293;SDS011;1659;51.470;6.770;2024-02-28T12:30:08;82.13;;;35.90;;
3293;SDS011;1659;51.470;6.770;2024-02-28T12:32:35;75.70;;;33.10;;
3293;SDS011;1659;51.470;6.770;2024-02-28T12:35:02;77.00;;;32.90;;
3293;SDS011;1659;51.470;6.770;2024-02-28T12:37:29;79.80;;;33.57;;
3293;SDS011;1659;51.470;6.770;2024-02-28T12:39:57;77.10;;;31.97;;
3293;SDS011;1659;51.470;6.770;2024-02-28T12:42:23;67.53;;;30.20;;
3293;SDS011;1659;51.470;6.770;2024-02-28T12:44:50;77.07;;;31.90;;
3293;SDS011;1659;51.470;6.770;2024-02-28T12:47:17;72.13;;;29.70;;
3293;SDS011;1659;51.470;6.770;2024-02-28T12:49:43;65.37;;;29.87;;
3293;SDS011;1659;51.470;6.770;2024-02-28T12:52:10;66.23;;;30.10;;
3293;SDS011;1659;51.470;6.770;2024-02-28T12:54:36;71.23;;;29.60;;
3293;SDS011;1659;51.470;6.770;2024-02-28T12:57:04;63.33;;;28.20;;
3293;SDS011;1659;51.470;6.770;2024-02-28T12:59:31;62.37;;;28.67;;
3293;SDS011;1659;51.470;6.770;2024-02-28T13:01:58;58.97;;;26.57;;
3293;SDS011;1659;51.470;6.770;2024-02-28T13:04:25;62.03;;;29.30;;
3293;SDS011;1659;51.470;6.770;2024-02-28T13:06:53;54.20;;;26.73;;
3293;SDS011;1659;51.470;6.770;2024-02-28T13:09:20;56.30;;;26.70;;
3293;SDS011;1659;51.470;6.770;2024-02-28T13:11:47;66.70;;;28.50;;
3293;SDS011;1659;51.470;6.770;2024-02-28T13:14:16;64.20;;;28.87;;
3293;SDS011;1659;51.470;6.770;2024-02-28T13:16:42;51.63;;;24.50;;
3293;SDS011;1659;51.470;6.770;2024-02-28T13:19:10;52.80;;;25.63;;
3293;SDS011;1659;51.470;6.770;2024-02-28T13:21:37;48.70;;;23.67;;
3293;SDS011;1659;51.470;6.770;2024-02-28T13:24:05;61.47;;;25.63;;
3293;SDS011;1659;51.470;6.770;2024-02-28T13:26:31;53.63;;;24.67;;
3293;SDS011;1659;51.470;6.770;2024-02-28T13:28:58;54.63;;;24.50;;
3293;SDS011;1659;51.470;6.770;2024-02-28T13:31:26;49.63;;;23.73;;
3293;SDS011;1659;51.470;6.770;2024-02-28T13:33:53;64.03;;;25.93;;
3293;SDS011;1659;51.470;6.770;2024-02-28T13:36:19;56.63;;;23.13;;
3293;SDS011;1659;51.470;6.770;2024-02-28T13:38:46;52.23;;;25.50;;
3293;SDS011;1659;51.470;6.770;2024-02-28T13:41:13;58.63;;;24.30;;
3293;SDS011;1659;51.470;6.770;2024-02-28T13:43:41;57.03;;;25.70;;
3293;SDS011;1659;51.470;6.770;2024-02-28T13:46:08;53.73;;;24.50;;
3293;SDS011;1659;51.470;6.770;2024-02-28T13:48:36;49.60;;;22.17;;
3293;SDS011;1659;51.470;6.770;2024-02-28T13:51:03;54.07;;;23.60;;
3293;SDS011;1659;51.470;6.770;2024-02-28T13:53:30;49.60;;;23.70;;
3293;SDS011;1659;51.470;6.770;2024-02-28T13:55:57;59.70;;;23.50;;
3293;SDS011;1659;51.470;6.770;2024-02-28T13:58:23;46.80;;;22.13;;
3293;SDS011;1659;51.470;6.770;2024-02-28T14:00:50;48.97;;;21.07;;
3293;SDS011;1659;51.470;6.770;2024-02-28T14:03:17;48.80;;;21.50;;
3293;SDS011;1659;51.470;6.770;2024-02-28T14:05:45;46.37;;;22.20;;
3293;SDS011;1659;51.470;6.770;2024-02-28T14:08:12;49.97;;;22.27;;
3293;SDS011;1659;51.470;6.770;2024-02-28T14:10:38;47.20;;;22.70;;
3293;SDS011;1659;51.470;6.770;2024-02-28T14:13:05;40.80;;;20.70;;
3293;SDS011;1659;51.470;6.770;2024-02-28T14:15:32;48.90;;;23.70;;
3293;SDS011;1659;51.470;6.770;2024-02-28T14:18:01;50.00;;;22.60;;
3293;SDS011;1659;51.470;6.770;2024-02-28T14:20:28;49.23;;;23.00;;
3293;SDS011;1659;51.470;6.770;2024-02-28T14:22:56;51.53;;;23.87;;
3293;SDS011;1659;51.470;6.770;2024-02-28T14:25:23;50.87;;;23.07;;
3293;SDS011;1659;51.470;6.770;2024-02-28T14:27:50;53.27;;;21.00;;
3293;SDS011;1659;51.470;6.770;2024-02-28T14:30:17;59.03;;;22.93;;
3293;SDS011;1659;51.470;6.770;2024-02-28T14:32:43;49.90;;;24.03;;
3293;SDS011;1659;51.470;6.770;2024-02-28T14:35:10;48.80;;;21.97;;
3293;SDS011;1659;51.470;6.770;2024-02-28T14:37:37;43.93;;;22.23;;
3293;SDS011;1659;51.470;6.770;2024-02-28T14:40:07;55.20;;;25.47;;
3293;SDS011;1659;51.470;6.770;2024-02-28T14:42:36;53.57;;;22.90;;
3293;SDS011;1659;51.470;6.770;2024-02-28T14:45:02;43.77;;;20.20;;
3293;SDS011;1659;51.470;6.770;2024-02-28T14:47:30;40.90;;;18.50;;
3293;SDS011;1659;51.470;6.770;2024-02-28T14:49:57;41.30;;;19.93;;
3293;SDS011;1659;51.470;6.770;2024-02-28T14:52:24;41.00;;;19.43;;
3293;SDS011;1659;51.470;6.770;2024-02-28T14:54:50;38.00;;;18.40;;